Time;durP1;ratioP1;P1;durP2;ratioP2;P2;SDS_P1;SDS_P2;PMS_P1;PMS_P2;Temp;Humidity;BMP_temperature;BMP_pressure;BME280_temperature;BME280_humidity;BME280_pressure;Samples;Min_cycle;Max_cycle;Signal;HPM_P1;HPM_P2
2022/12/19 00:01:51;;;;;;;49.42;27.70;;;;;;;;;;4896691;29;20087;-60
2022/12/19 00:04:18;;;;;;;52.65;28.58;;;;;;;;;;4898924;29;20060;-59
2022/12/19 00:06:45;;;;;;;52.60;26.95;;;;;;;;;;4899539;29;20049;-60
2022/12/19 00:09:11;;;;;;;53.63;27.75;;;;;;;;;;4900090;29;20049;-60
2022/12/19 00:11:38;;;;;;;54.92;27.00;;;;;;;;;;4900097;29;20067;-60
2022/12/19 00:14:05;;;;;;;56.55;27.27;;;;;;;;;;4900126;29;20109;-61
2022/12/19 00:16:32;;;;;;;55.72;27.05;;;;;;;;;;4899920;29;20048;-60
2022/12/19 00:18:59;;;;;;;54.70;27.13;;;;;;;;;;4883647;29;20104;-60
2022/12/19 00:21:27;;;;;;;54.08;27.77;;;;;;;;;;4901989;29;20041;-60
2022/12/19 00:23:54;;;;;;;50.83;27.88;;;;;;;;;;4902226;29;20063;-60
2022/12/19 00:26:22;;;;;;;54.55;27.77;;;;;;;;;;4884876;29;20056;-60
2022/12/19 00:28:50;;;;;;;50.58;27.17;;;;;;;;;;4901817;29;20135;-60
2022/12/19 00:31:17;;;;;;;49.63;26.63;;;;;;;;;;4901781;29;20059;-59
2022/12/19 00:33:44;;;;;;;49.75;26.95;;;;;;;;;;4884278;29;20472;-61
2022/12/19 00:36:12;;;;;;;49.22;27.27;;;;;;;;;;4901181;29;20123;-60
2022/12/19 00:38:41;;;;;;;51.80;27.38;;;;;;;;;;4884863;29;20053;-60
2022/12/19 00:41:08;;;;;;;49.88;26.98;;;;;;;;;;4901198;29;20056;-61
2022/12/19 00:43:35;;;;;;;53.38;27.58;;;;;;;;;;4901046;29;20053;-60
2022/12/19 00:46:05;;;;;;;56.25;28.70;;;;;;;;;;4885688;29;20052;-60
2022/12/19 00:48:32;;;;;;;56.75;29.25;;;;;;;;;;4886558;29;20108;-61
2022/12/19 00:51:10;;;;;;;58.22;29.90;;;;;;;;;;4902947;29;20044;-60
2022/12/19 00:53:36;;;;;;;56.08;29.20;;;;;;;;;;4870205;29;20067;-61
2022/12/19 00:56:04;;;;;;;57.50;29.95;;;;;;;;;;4900555;29;20052;-61
2022/12/19 00:58:31;;;;;;;55.30;29.63;;;;;;;;;;4883397;29;20131;-61
2022/12/19 01:01:05;;;;;;;60.13;28.95;;;;;;;;;;4882752;29;20044;-61
2022/12/19 01:03:31;;;;;;;55.97;30.38;;;;;;;;;;4898281;29;20048;-60
2022/12/19 01:05:58;;;;;;;57.50;28.75;;;;;;;;;;4882345;29;20080;-61
2022/12/19 01:08:24;;;;;;;58.10;29.02;;;;;;;;;;4882830;29;20053;-61
2022/12/19 01:10:52;;;;;;;50.42;27.95;;;;;;;;;;4882596;29;20067;-61
2022/12/19 01:13:19;;;;;;;53.42;28.77;;;;;;;;;;4882806;29;20060;-61
2022/12/19 01:15:46;;;;;;;52.42;29.13;;;;;;;;;;4881113;29;20125;-61
2022/12/19 01:18:12;;;;;;;50.92;26.00;;;;;;;;;;4898949;29;20067;-61
2022/12/19 01:20:40;;;;;;;56.10;29.13;;;;;;;;;;4899394;29;20048;-60
2022/12/19 01:23:07;;;;;;;57.53;27.90;;;;;;;;;;4898936;29;20166;-61
2022/12/19 01:25:35;;;;;;;60.38;30.33;;;;;;;;;;4881229;29;20079;-61
2022/12/19 01:28:05;;;;;;;54.90;27.25;;;;;;;;;;4881817;29;20060;-61
2022/12/19 01:30:32;;;;;;;52.20;27.33;;;;;;;;;;4881643;29;20125;-61
2022/12/19 01:32:59;;;;;;;50.85;28.80;;;;;;;;;;4898327;29;20048;-61
2022/12/19 01:35:26;;;;;;;56.28;30.10;;;;;;;;;;4898395;29;20145;-61
2022/12/19 01:37:53;;;;;;;55.92;28.70;;;;;;;;;;4881733;29;20044;-61
2022/12/19 01:40:34;;;;;;;50.97;27.95;;;;;;;;;;4881775;29;20143;-60
2022/12/19 01:43:01;;;;;;;56.88;28.73;;;;;;;;;;4898561;29;20127;-61
2022/12/19 01:45:28;;;;;;;55.75;29.20;;;;;;;;;;4881049;29;20063;-61
2022/12/19 01:48:03;;;;;;;49.35;26.73;;;;;;;;;;4898152;29;20045;-61
2022/12/19 01:50:38;;;;;;;57.60;29.45;;;;;;;;;;4898501;29;20041;-61
2022/12/19 01:53:08;;;;;;;56.85;29.52;;;;;;;;;;4881469;29;20131;-61
2022/12/19 01:55:36;;;;;;;52.33;28.40;;;;;;;;;;4897810;29;20057;-61
2022/12/19 01:58:02;;;;;;;50.25;27.83;;;;;;;;;;4881255;29;20100;-61
2022/12/19 02:00:29;;;;;;;51.20;27.55;;;;;;;;;;4898289;29;20037;-61
2022/12/19 02:03:05;;;;;;;55.72;28.77;;;;;;;;;;4881312;29;20370;-61
2022/12/19 02:05:34;;;;;;;54.83;28.85;;;;;;;;;;4880753;29;20104;-61
2022/12/19 02:08:00;;;;;;;53.47;28.25;;;;;;;;;;4880992;29;20131;-61
2022/12/19 02:10:28;;;;;;;51.33;27.65;;;;;;;;;;4865737;29;20048;-61
2022/12/19 02:12:55;;;;;;;58.22;29.23;;;;;;;;;;4880997;29;20136;-61
2022/12/19 02:15:22;;;;;;;59.38;29.92;;;;;;;;;;4880399;29;20413;-61
2022/12/19 02:18:06;;;;;;;58.55;29.27;;;;;;;;;;4880680;29;20048;-61
2022/12/19 02:20:44;;;;;;;55.00;27.73;;;;;;;;;;4897715;29;20033;-61
2022/12/19 02:23:34;;;;;;;56.92;29.58;;;;;;;;;;4897536;29;20051;-61
2022/12/19 02:26:19;;;;;;;59.00;29.50;;;;;;;;;;4854530;29;20060;-61
2022/12/19 02:28:50;;;;;;;55.65;29.98;;;;;;;;;;4880480;29;20067;-60
2022/12/19 02:31:20;;;;;;;55.03;29.63;;;;;;;;;;4880590;29;20505;-61
2022/12/19 02:33:58;;;;;;;54.47;29.02;;;;;;;;;;4880764;29;20377;-61
2022/12/19 02:36:39;;;;;;;53.35;28.60;;;;;;;;;;4895859;29;20099;-61
2022/12/19 02:39:30;;;;;;;59.65;28.95;;;;;;;;;;4880762;29;20142;-61
2022/12/19 02:42:00;;;;;;;56.65;29.17;;;;;;;;;;4880439;29;20139;-61
2022/12/19 02:44:36;;;;;;;60.05;28.90;;;;;;;;;;4897147;29;20398;-61
2022/12/19 02:47:04;;;;;;;63.03;31.58;;;;;;;;;;4879991;29;20108;-61
2022/12/19 02:49:33;;;;;;;58.63;29.45;;;;;;;;;;4880183;29;20052;-60
2022/12/19 02:52:08;;;;;;;56.00;30.00;;;;;;;;;;4880032;29;20055;-61
2022/12/19 02:54:34;;;;;;;64.25;32.20;;;;;;;;;;4880066;29;20272;-61
2022/12/19 02:57:08;;;;;;;56.63;29.48;;;;;;;;;;4879443;29;20506;-61
2022/12/19 02:59:40;;;;;;;55.88;29.35;;;;;;;;;;4896889;29;20052;-61
2022/12/19 03:02:20;;;;;;;53.75;28.30;;;;;;;;;;4880071;29;20048;-61
2022/12/19 03:04:53;;;;;;;60.17;29.58;;;;;;;;;;4896806;29;20156;-61
2022/12/19 03:07:19;;;;;;;54.28;29.60;;;;;;;;;;4896215;29;20577;-61
2022/12/19 03:10:09;;;;;;;54.50;27.77;;;;;;;;;;4879981;29;20072;-60
2022/12/19 03:12:39;;;;;;;56.63;28.90;;;;;;;;;;4879677;29;20087;-61
2022/12/19 03:15:06;;;;;;;53.70;29.50;;;;;;;;;;4896138;29;20135;-61
2022/12/19 03:17:36;;;;;;;54.80;28.65;;;;;;;;;;4896698;29;20048;-61
2022/12/19 03:20:24;;;;;;;57.05;30.05;;;;;;;;;;4896766;29;20050;-61
2022/12/19 03:22:51;;;;;;;51.78;28.83;;;;;;;;;;4880350;29;20706;-61
2022/12/19 03:25:19;;;;;;;58.13;29.50;;;;;;;;;;4896252;29;20048;-61
2022/12/19 03:27:47;;;;;;;57.42;30.30;;;;;;;;;;4896448;29;20041;-61
2022/12/19 03:30:13;;;;;;;62.83;30.75;;;;;;;;;;4896308;29;20077;-61
2022/12/19 03:32:41;;;;;;;53.60;28.98;;;;;;;;;;4896216;29;20040;-61
2022/12/19 03:35:18;;;;;;;55.53;29.77;;;;;;;;;;4895854;29;20320;-60
2022/12/19 03:37:46;;;;;;;56.72;30.60;;;;;;;;;;4895932;29;20127;-61
2022/12/19 03:40:23;;;;;;;55.20;29.15;;;;;;;;;;4896315;29;20124;-61
2022/12/19 03:43:10;;;;;;;57.78;29.38;;;;;;;;;;4896326;29;20051;-61
2022/12/19 03:46:00;;;;;;;57.58;30.00;;;;;;;;;;4896120;29;20131;-61
2022/12/19 03:48:30;;;;;;;56.45;28.48;;;;;;;;;;4896108;29;20041;-61
2022/12/19 03:51:14;;;;;;;58.85;30.95;;;;;;;;;;4896251;29;20044;-61
2022/12/19 03:53:40;;;;;;;;;;;;;;;;;;4896711;29;20194;-61
2022/12/19 03:56:15;;;;;;;53.40;27.88;;;;;;;;;;4895753;29;19927;-61
2022/12/19 03:58:45;;;;;;;55.78;28.25;;;;;;;;;;4896242;29;20124;-61
2022/12/19 04:01:12;;;;;;;55.28;27.73;;;;;;;;;;4879639;29;20518;-60
2022/12/19 04:03:38;;;;;;;51.67;28.88;;;;;;;;;;4896752;29;20092;-61
2022/12/19 04:06:05;;;;;;;55.53;28.83;;;;;;;;;;4896422;29;20056;-61
2022/12/19 04:08:32;;;;;;;56.17;29.38;;;;;;;;;;4896681;29;20045;-61
2022/12/19 04:11:02;;;;;;;57.17;29.85;;;;;;;;;;4896762;29;20108;-61
2022/12/19 04:13:32;;;;;;;56.70;29.27;;;;;;;;;;4896508;29;20052;-61
2022/12/19 04:16:03;;;;;;;53.80;28.40;;;;;;;;;;4896293;29;20205;-61
2022/12/19 04:18:30;;;;;;;54.90;29.13;;;;;;;;;;4896973;29;20128;-62
2022/12/19 04:21:07;;;;;;;55.03;29.13;;;;;;;;;;4900064;29;20108;-60
2022/12/19 04:23:37;;;;;;;54.15;28.35;;;;;;;;;;4900498;29;20067;-60
2022/12/19 04:26:04;;;;;;;53.65;27.33;;;;;;;;;;4900084;29;20060;-61
2022/12/19 04:28:33;;;;;;;50.00;28.15;;;;;;;;;;4884246;29;20073;-61
2022/12/19 04:31:00;;;;;;;54.30;28.23;;;;;;;;;;4900140;29;20068;-61
2022/12/19 04:33:26;;;;;;;59.38;30.88;;;;;;;;;;4898357;29;20490;-61
2022/12/19 04:35:53;;;;;;;52.63;26.55;;;;;;;;;;4896834;29;20474;-61
2022/12/19 04:38:19;;;;;;;52.17;28.27;;;;;;;;;;4897231;29;20486;-61
2022/12/19 04:40:45;;;;;;;56.38;29.13;;;;;;;;;;4897700;29;20040;-61
2022/12/19 04:43:12;;;;;;;50.10;29.58;;;;;;;;;;4881854;29;20048;-61
2022/12/19 04:45:41;;;;;;;57.78;29.27;;;;;;;;;;4897822;29;20040;-61
2022/12/19 04:48:08;;;;;;;55.15;28.95;;;;;;;;;;4898398;29;20049;-61
2022/12/19 04:50:34;;;;;;;57.20;29.67;;;;;;;;;;4885349;29;20238;-61
2022/12/19 04:53:01;;;;;;;55.28;28.25;;;;;;;;;;4901737;29;20053;-61
2022/12/19 04:55:27;;;;;;;62.90;32.42;;;;;;;;;;4901433;29;20037;-60
2022/12/19 04:57:54;;;;;;;54.00;28.90;;;;;;;;;;4900642;29;20047;-60
2022/12/19 05:03:09;;;;;;;55.13;28.63;;;;;;;;;;5063040;23;20052;-61
2022/12/19 05:05:35;;;;;;;52.17;29.38;;;;;;;;;;4882132;29;20045;-61
2022/12/19 05:08:01;;;;;;;54.42;28.45;;;;;;;;;;4899494;29;20052;-60
2022/12/19 05:10:28;;;;;;;61.20;28.13;;;;;;;;;;4899503;29;20052;-60
2022/12/19 05:12:54;;;;;;;61.70;30.92;;;;;;;;;;4885421;29;20056;-62
2022/12/19 05:15:21;;;;;;;67.18;29.88;;;;;;;;;;4880095;29;20108;-61
2022/12/19 05:17:47;;;;;;;60.63;28.80;;;;;;;;;;4894490;23;20123;-59
2022/12/19 05:20:13;;;;;;;64.80;30.88;;;;;;;;;;4901701;29;20032;-60
2022/12/19 05:22:40;;;;;;;70.85;29.95;;;;;;;;;;4901355;29;20501;-60
2022/12/19 05:25:07;;;;;;;65.63;29.38;;;;;;;;;;4917564;29;20052;-60
2022/12/19 05:27:33;;;;;;;75.18;31.88;;;;;;;;;;4882763;29;20062;-60
2022/12/19 05:30:00;;;;;;;56.38;29.05;;;;;;;;;;4898138;29;20456;-60
2022/12/19 05:32:29;;;;;;;62.42;29.33;;;;;;;;;;4899458;29;20045;-61
2022/12/19 05:34:55;;;;;;;60.88;30.83;;;;;;;;;;4899730;29;20056;-59
2022/12/19 05:37:21;;;;;;;59.75;29.85;;;;;;;;;;4899372;29;20489;-60
2022/12/19 05:39:48;;;;;;;55.22;27.98;;;;;;;;;;4900948;29;20387;-61
2022/12/19 05:42:14;;;;;;;57.50;29.67;;;;;;;;;;4898633;29;20056;-59
2022/12/19 05:44:40;;;;;;;57.67;28.70;;;;;;;;;;4882876;29;20515;-61
2022/12/19 05:47:07;;;;;;;52.88;29.88;;;;;;;;;;4898933;29;20049;-58
2022/12/19 05:49:33;;;;;;;56.15;28.67;;;;;;;;;;4899225;29;20060;-57
2022/12/19 05:52:00;;;;;;;56.83;29.63;;;;;;;;;;4899304;29;20456;-60
2022/12/19 05:54:27;;;;;;;53.75;29.60;;;;;;;;;;4899054;29;20037;-57
2022/12/19 05:56:53;;;;;;;57.83;29.55;;;;;;;;;;4901587;29;20486;-56
2022/12/19 05:59:19;;;;;;;57.63;29.80;;;;;;;;;;4904711;29;20108;-57
2022/12/19 06:01:46;;;;;;;54.28;29.30;;;;;;;;;;4902049;29;20417;-60
2022/12/19 06:04:12;;;;;;;57.83;30.52;;;;;;;;;;4899043;29;20494;-59
2022/12/19 06:06:39;;;;;;;53.20;29.02;;;;;;;;;;4898754;29;20040;-60
2022/12/19 06:09:05;;;;;;;52.45;29.00;;;;;;;;;;4898783;29;20049;-58
2022/12/19 06:11:32;;;;;;;55.28;29.10;;;;;;;;;;4899890;29;20049;-61
2022/12/19 06:13:58;;;;;;;57.03;29.40;;;;;;;;;;4898830;29;20442;-60
2022/12/19 06:16:25;;;;;;;56.35;29.85;;;;;;;;;;4898086;29;20513;-61
2022/12/19 06:18:51;;;;;;;55.90;28.15;;;;;;;;;;4898337;29;20051;-60
2022/12/19 06:21:19;;;;;;;58.63;29.38;;;;;;;;;;4898331;29;20041;-61
2022/12/19 06:23:45;;;;;;;57.53;29.92;;;;;;;;;;4898190;29;20498;-60
2022/12/19 06:26:13;;;;;;;57.55;31.10;;;;;;;;;;4898062;29;20071;-61
2022/12/19 06:28:45;;;;;;;54.75;29.20;;;;;;;;;;4899456;29;20049;-60
2022/12/19 06:31:12;;;;;;;54.70;29.77;;;;;;;;;;4898936;29;20488;-59
2022/12/19 06:33:38;;;;;;;52.08;27.25;;;;;;;;;;4898295;29;20297;-61
2022/12/19 06:36:14;;;;;;;52.35;27.88;;;;;;;;;;4897607;29;20489;-59
2022/12/19 06:38:41;;;;;;;52.25;27.77;;;;;;;;;;4898401;29;20049;-57
2022/12/19 06:43:56;;;;;;;60.20;30.50;;;;;;;;;;4881387;29;20053;-58
2022/12/19 06:46:22;;;;;;;58.72;28.85;;;;;;;;;;4880583;29;20060;-58
2022/12/19 06:48:49;;;;;;;56.47;28.35;;;;;;;;;;4898268;29;20056;-58
2022/12/19 06:51:16;;;;;;;55.53;30.30;;;;;;;;;;4897904;29;20056;-58
2022/12/19 06:53:42;;;;;;;53.55;28.92;;;;;;;;;;4897604;29;20052;-57
2022/12/19 06:56:10;;;;;;;56.97;29.80;;;;;;;;;;4897238;29;20100;-57
2022/12/19 06:58:37;;;;;;;58.00;30.00;;;;;;;;;;4897972;29;20044;-58
2022/12/19 07:01:04;;;;;;;55.33;28.88;;;;;;;;;;4898536;29;20159;-58
2022/12/19 07:03:40;;;;;;;55.15;30.27;;;;;;;;;;4897907;29;20045;-57
2022/12/19 07:06:06;;;;;;;58.58;31.23;;;;;;;;;;4896500;29;20075;-58
2022/12/19 07:08:33;;;;;;;58.50;29.80;;;;;;;;;;4897882;29;20501;-58
2022/12/19 07:10:59;;;;;;;53.38;29.33;;;;;;;;;;4896668;29;20096;-57
2022/12/19 07:13:26;;;;;;;54.22;28.67;;;;;;;;;;4897525;29;20075;-57
2022/12/19 07:15:53;;;;;;;51.72;28.67;;;;;;;;;;4880251;29;20056;-57
2022/12/19 07:18:20;;;;;;;55.90;29.27;;;;;;;;;;4897806;29;20040;-56
2022/12/19 07:20:46;;;;;;;56.42;28.38;;;;;;;;;;4897533;29;20056;-58
2022/12/19 07:23:15;;;;;;;57.15;30.10;;;;;;;;;;4897631;29;20493;-60
2022/12/19 07:25:41;;;;;;;52.78;29.30;;;;;;;;;;4896311;29;20056;-57
2022/12/19 07:28:08;;;;;;;54.78;29.98;;;;;;;;;;4897348;29;20055;-57
2022/12/19 07:30:37;;;;;;;57.15;29.35;;;;;;;;;;4896430;29;20052;-60
2022/12/19 07:33:03;;;;;;;57.80;31.63;;;;;;;;;;4897734;29;20060;-59
2022/12/19 07:35:30;;;;;;;55.30;30.02;;;;;;;;;;4897266;29;20549;-57
2022/12/19 07:38:02;;;;;;;53.58;29.55;;;;;;;;;;4897631;29;20454;-57
2022/12/19 07:40:31;;;;;;;56.22;30.98;;;;;;;;;;4881242;29;20052;-58
2022/12/19 07:42:58;;;;;;;59.25;31.73;;;;;;;;;;4896505;29;20045;-59
2022/12/19 07:45:25;;;;;;;52.88;28.85;;;;;;;;;;4897000;29;20045;-59
2022/12/19 07:47:51;;;;;;;54.58;30.42;;;;;;;;;;4897107;29;20468;-60
2022/12/19 07:50:17;;;;;;;55.20;28.85;;;;;;;;;;4897182;29;20083;-60
2022/12/19 07:52:44;;;;;;;59.03;31.08;;;;;;;;;;4895813;29;20056;-60
2022/12/19 07:55:10;;;;;;;54.55;28.65;;;;;;;;;;4896518;29;20049;-60
2022/12/19 07:57:37;;;;;;;57.47;29.92;;;;;;;;;;4897121;29;20044;-61
2022/12/19 08:00:03;;;;;;;52.83;28.35;;;;;;;;;;4897274;29;20386;-59
2022/12/19 08:02:37;;;;;;;;;;;;;;;;;;4897794;29;20053;-59
2022/12/19 08:05:04;;;;;;;54.30;28.15;;;;;;;;;;4896732;29;20019;-60
2022/12/19 08:07:31;;;;;;;49.63;27.92;;;;;;;;;;4896914;29;20048;-60
2022/12/19 08:09:57;;;;;;;58.40;29.08;;;;;;;;;;4897042;29;20048;-59
2022/12/19 08:12:24;;;;;;;58.92;30.40;;;;;;;;;;4897132;29;20053;-60
2022/12/19 08:14:50;;;;;;;51.28;28.98;;;;;;;;;;4896869;29;20044;-59
2022/12/19 08:17:22;;;;;;;52.03;28.27;;;;;;;;;;4896246;29;20040;-60
2022/12/19 08:19:49;;;;;;;55.25;29.85;;;;;;;;;;4896875;29;20044;-61
2022/12/19 08:22:15;;;;;;;55.45;30.67;;;;;;;;;;4896724;29;20044;-60
2022/12/19 08:24:42;;;;;;;58.47;30.25;;;;;;;;;;4897118;29;20048;-59
2022/12/19 08:27:08;;;;;;;54.80;29.55;;;;;;;;;;4899783;29;20049;-58
2022/12/19 08:29:35;;;;;;;53.17;29.55;;;;;;;;;;4900347;29;20048;-60
2022/12/19 08:32:01;;;;;;;61.80;29.83;;;;;;;;;;4899259;29;20063;-61
2022/12/19 08:34:28;;;;;;;52.92;28.92;;;;;;;;;;4900136;29;20041;-61
2022/12/19 08:36:54;;;;;;;54.28;28.27;;;;;;;;;;4900054;29;20053;-61
2022/12/19 08:39:20;;;;;;;55.03;30.52;;;;;;;;;;4900222;29;20501;-59
2022/12/19 08:41:47;;;;;;;55.30;29.83;;;;;;;;;;4900147;29;20464;-59
2022/12/19 08:44:15;;;;;;;55.08;29.63;;;;;;;;;;4900472;29;20100;-60
2022/12/19 08:46:41;;;;;;;53.38;29.60;;;;;;;;;;4899646;29;20135;-65
2022/12/19 08:49:15;;;;;;;55.90;31.00;;;;;;;;;;4900420;29;20048;-60
2022/12/19 08:51:41;;;;;;;56.75;30.13;;;;;;;;;;4883334;29;20045;-61
2022/12/19 08:54:08;;;;;;;55.13;30.92;;;;;;;;;;4898985;29;20045;-61
2022/12/19 08:56:37;;;;;;;51.75;29.20;;;;;;;;;;4882468;29;20087;-60
2022/12/19 08:59:11;;;;;;;57.67;30.85;;;;;;;;;;4883275;29;20097;-61
2022/12/19 09:01:40;;;;;;;57.50;29.50;;;;;;;;;;4898701;29;20044;-61
2022/12/19 09:04:06;;;;;;;55.80;29.08;;;;;;;;;;4899108;29;20044;-60
2022/12/19 09:06:53;;;;;;;51.75;29.65;;;;;;;;;;4899133;29;20450;-60
2022/12/19 09:09:19;;;;;;;54.50;29.35;;;;;;;;;;4899985;29;20048;-61
2022/12/19 09:11:46;;;;;;;51.00;28.48;;;;;;;;;;4899988;29;20045;-61
2022/12/19 09:14:13;;;;;;;55.13;29.33;;;;;;;;;;4882891;29;20424;-60
2022/12/19 09:16:46;;;;;;;48.30;27.33;;;;;;;;;;4899073;29;20123;-60
2022/12/19 09:19:15;;;;;;;53.35;28.60;;;;;;;;;;4882916;29;20100;-60
2022/12/19 09:21:41;;;;;;;49.78;28.80;;;;;;;;;;4899735;29;20048;-61
2022/12/19 09:24:08;;;;;;;55.35;28.98;;;;;;;;;;4899570;29;20064;-61
2022/12/19 09:26:37;;;;;;;50.22;29.35;;;;;;;;;;4897698;29;20505;-59
2022/12/19 09:29:04;;;;;;;56.35;30.10;;;;;;;;;;4899654;29;20048;-61
2022/12/19 09:31:46;;;;;;;51.45;29.85;;;;;;;;;;4899561;29;20044;-60
2022/12/19 09:34:15;;;;;;;58.60;31.02;;;;;;;;;;4899072;29;20049;-60
2022/12/19 09:36:42;;;;;;;48.20;29.13;;;;;;;;;;4881323;29;20521;-62
2022/12/19 09:39:08;;;;;;;52.47;30.73;;;;;;;;;;4899108;29;20108;-60
2022/12/19 09:42:00;;;;;;;60.75;32.03;;;;;;;;;;4882329;29;20508;-60
2022/12/19 09:44:26;;;;;;;55.20;29.05;;;;;;;;;;4899039;29;20054;-59
2022/12/19 09:46:59;;;;;;;56.40;30.10;;;;;;;;;;4881291;29;20052;-60
2022/12/19 09:49:28;;;;;;;50.22;29.25;;;;;;;;;;4866247;29;20490;-60
2022/12/19 09:51:59;;;;;;;53.65;30.65;;;;;;;;;;4863977;29;20462;-61
2022/12/19 09:54:43;;;;;;;52.00;29.75;;;;;;;;;;4864016;29;20080;-60
2022/12/19 09:57:27;;;;;;;60.55;30.77;;;;;;;;;;4879634;29;20041;-61
2022/12/19 09:59:56;;;;;;;55.28;30.08;;;;;;;;;;4880694;29;20498;-60
2022/12/19 10:02:28;;;;;;;48.97;28.80;;;;;;;;;;4887003;29;20399;-59
2022/12/19 10:05:21;;;;;;;58.00;30.45;;;;;;;;;;4886608;29;20049;-59
2022/12/19 10:08:17;;;;;;;52.97;29.55;;;;;;;;;;4866170;29;20080;-60
2022/12/19 10:10:50;;;;;;;52.55;30.00;;;;;;;;;;4879064;29;20087;-62
2022/12/19 10:13:42;;;;;;;53.95;28.63;;;;;;;;;;4880166;29;20072;-59
2022/12/19 10:16:15;;;;;;;52.60;28.80;;;;;;;;;;4879028;29;20486;-58
2022/12/19 10:18:47;;;;;;;52.47;30.25;;;;;;;;;;4879370;29;20399;-58
2022/12/19 10:21:31;;;;;;;53.85;29.35;;;;;;;;;;4879861;29;20298;-58
2022/12/19 10:24:44;;;;;;;57.53;29.85;;;;;;;;;;4878383;29;20087;-58
2022/12/19 10:27:32;;;;;;;60.42;30.02;;;;;;;;;;4879399;29;20391;-60
2022/12/19 10:30:11;;;;;;;55.17;30.38;;;;;;;;;;4879727;29;20048;-57
2022/12/19 10:33:04;;;;;;;53.33;31.00;;;;;;;;;;4862930;29;20056;-60
2022/12/19 10:35:35;;;;;;;64.38;32.88;;;;;;;;;;4856789;29;20053;-58
2022/12/19 10:38:10;;;;;;;61.92;34.20;;;;;;;;;;4879235;29;20128;-59
2022/12/19 10:40:46;;;;;;;60.42;33.42;;;;;;;;;;4879513;29;20056;-59
2022/12/19 10:43:19;;;;;;;56.17;31.27;;;;;;;;;;4879403;29;20064;-59
2022/12/19 10:46:01;;;;;;;59.47;32.03;;;;;;;;;;4878787;29;20056;-58
2022/12/19 10:48:28;;;;;;;52.80;29.98;;;;;;;;;;4878598;29;20076;-58
2022/12/19 10:50:56;;;;;;;58.00;32.75;;;;;;;;;;4879138;29;20045;-59
2022/12/19 10:53:27;;;;;;;54.38;30.77;;;;;;;;;;4862673;29;20049;-59
2022/12/19 10:55:58;;;;;;;60.58;32.53;;;;;;;;;;4878636;29;20044;-59
2022/12/19 10:58:25;;;;;;;53.65;31.45;;;;;;;;;;4879008;29;20482;-60
2022/12/19 11:00:57;;;;;;;59.33;30.85;;;;;;;;;;4879057;29;20041;-60
2022/12/19 11:03:23;;;;;;;54.25;31.70;;;;;;;;;;4879064;29;20045;-59
2022/12/19 11:05:51;;;;;;;54.33;31.95;;;;;;;;;;4878366;29;20052;-58
2022/12/19 11:08:28;;;;;;;56.00;31.67;;;;;;;;;;4878957;29;20061;-59
2022/12/19 11:10:56;;;;;;;51.00;29.75;;;;;;;;;;4878910;29;20049;-60
2022/12/19 11:13:44;;;;;;;53.78;31.20;;;;;;;;;;4877710;29;20132;-58
2022/12/19 11:16:34;;;;;;;54.05;31.17;;;;;;;;;;4878137;29;20577;-59
2022/12/19 11:19:25;;;;;;;58.88;31.38;;;;;;;;;;4878964;29;20100;-59
2022/12/19 11:22:30;;;;;;;58.88;33.42;;;;;;;;;;4877853;29;20082;-60
2022/12/19 11:25:17;;;;;;;58.22;32.13;;;;;;;;;;4878243;29;20499;-59
2022/12/19 11:28:13;;;;;;;68.43;33.63;;;;;;;;;;4878844;29;20096;-60
2022/12/19 11:31:10;;;;;;;55.95;32.55;;;;;;;;;;4878719;29;20506;-58
2022/12/19 11:34:04;;;;;;;55.60;32.67;;;;;;;;;;4878422;29;20045;-59
2022/12/19 11:36:31;;;;;;;;;;;;;;;;;;4877192;29;20045;-58
2022/12/19 11:38:58;;;;;;;52.72;31.60;;;;;;;;;;4878546;29;20187;-59
2022/12/19 11:41:24;;;;;;;53.92;31.10;;;;;;;;;;4862178;29;20079;-60
2022/12/19 11:43:55;;;;;;;53.47;30.90;;;;;;;;;;4862123;29;20074;-60
2022/12/19 11:46:45;;;;;;;53.10;30.67;;;;;;;;;;4877759;29;20048;-59
2022/12/19 11:49:11;;;;;;;49.38;29.70;;;;;;;;;;4871023;29;20057;-57
2022/12/19 11:51:38;;;;;;;52.50;31.02;;;;;;;;;;4878431;29;20071;-59
2022/12/19 11:54:12;;;;;;;54.80;31.10;;;;;;;;;;4878970;29;20071;-57
2022/12/19 11:56:39;;;;;;;52.97;30.30;;;;;;;;;;4878530;29;20053;-58
2022/12/19 11:59:11;;;;;;;55.63;30.80;;;;;;;;;;4879904;29;20097;-57
2022/12/19 12:01:38;;;;;;;48.90;28.80;;;;;;;;;;4866241;29;20084;-56
2022/12/19 12:04:28;;;;;;;49.90;30.30;;;;;;;;;;4882440;29;20044;-58
2022/12/19 12:06:55;;;;;;;51.47;28.67;;;;;;;;;;4882224;29;20049;-57
2022/12/19 12:09:44;;;;;;;47.50;28.30;;;;;;;;;;4882768;29;20057;-60
2022/12/19 12:12:41;;;;;;;51.13;28.88;;;;;;;;;;4883121;29;20503;-57
2022/12/19 12:15:29;;;;;;;50.28;28.45;;;;;;;;;;4868121;29;20169;-60
2022/12/19 12:18:21;;;;;;;52.10;29.20;;;;;;;;;;4882545;29;20467;-58
2022/12/19 12:21:11;;;;;;;47.47;27.08;;;;;;;;;;4882363;29;20132;-59
2022/12/19 12:24:10;;;;;;;48.17;28.38;;;;;;;;;;4882217;29;20072;-59
2022/12/19 12:27:12;;;;;;;46.90;28.40;;;;;;;;;;4881505;29;20045;-58
2022/12/19 12:30:07;;;;;;;48.67;28.38;;;;;;;;;;4881960;29;20113;-58
2022/12/19 12:33:12;;;;;;;49.25;28.45;;;;;;;;;;4880488;29;20105;-59
2022/12/19 12:35:59;;;;;;;;;;;;;;;;;;4880146;29;20601;-60
2022/12/19 12:39:08;;;;;;;49.05;27.88;;;;;;;;;;4881505;29;19923;-60
2022/12/19 12:42:02;;;;;;;50.95;29.58;;;;;;;;;;4880577;29;20513;-60
2022/12/19 12:44:34;;;;;;;50.35;29.20;;;;;;;;;;4849343;29;20057;-60
2022/12/19 12:47:12;;;;;;;50.78;28.80;;;;;;;;;;4881074;29;20060;-59
2022/12/19 12:49:41;;;;;;;50.38;29.38;;;;;;;;;;4864780;29;20072;-61
2022/12/19 12:52:13;;;;;;;51.25;30.77;;;;;;;;;;4849618;29;20072;-60
2022/12/19 12:54:42;;;;;;;55.78;31.98;;;;;;;;;;4881697;29;20060;-61
2022/12/19 12:57:16;;;;;;;51.45;30.80;;;;;;;;;;4880518;29;20142;-61
2022/12/19 12:59:44;;;;;;;55.45;31.33;;;;;;;;;;4864893;29;20417;-59
2022/12/19 13:02:20;;;;;;;50.30;30.45;;;;;;;;;;4881224;29;20128;-61
2022/12/19 13:04:55;;;;;;;52.60;29.55;;;;;;;;;;4881211;29;20105;-60
2022/12/19 13:07:41;;;;;;;50.70;29.65;;;;;;;;;;4880573;29;20476;-60
2022/12/19 13:10:21;;;;;;;50.58;30.67;;;;;;;;;;4880987;29;20041;-60
2022/12/19 13:13:01;;;;;;;48.58;29.05;;;;;;;;;;4880575;29;20417;-60
2022/12/19 13:15:31;;;;;;;54.25;31.35;;;;;;;;;;4880195;29;20107;-60
2022/12/19 13:18:16;;;;;;;53.50;30.85;;;;;;;;;;4880468;29;20052;-61
2022/12/19 13:20:45;;;;;;;48.28;29.05;;;;;;;;;;4864238;29;20048;-58
2022/12/19 13:23:22;;;;;;;51.47;31.27;;;;;;;;;;4880663;29;20097;-58
2022/12/19 13:25:50;;;;;;;53.17;30.05;;;;;;;;;;4848313;29;20061;-61
2022/12/19 13:28:20;;;;;;;52.80;31.08;;;;;;;;;;4880482;29;20060;-60
2022/12/19 13:31:04;;;;;;;47.58;28.90;;;;;;;;;;4864020;29;20120;-61
2022/12/19 13:33:53;;;;;;;52.42;30.15;;;;;;;;;;4880764;29;20498;-60
2022/12/19 13:36:21;;;;;;;;;;;;;;;;;;4880189;29;20037;-58
2022/12/19 13:39:16;;;;;;;48.95;29.05;;;;;;;;;;4866728;29;19951;-58
2022/12/19 13:44:47;;;;;;;;;;;;;;;;;;4880874;29;19924;-57
2022/12/19 13:47:14;;;;;;;44.88;26.90;;;;;;;;;;4879719;29;20380;-60
2022/12/19 13:49:49;;;;;;;53.58;29.77;;;;;;;;;;4880303;29;20049;-58
2022/12/19 13:52:16;;;;;;;52.47;29.27;;;;;;;;;;4880267;29;20045;-58
2022/12/19 13:54:47;;;;;;;56.47;30.20;;;;;;;;;;4880206;29;20093;-59
2022/12/19 13:57:27;;;;;;;59.40;32.65;;;;;;;;;;4879444;29;20049;-59
2022/12/19 13:59:56;;;;;;;50.63;29.63;;;;;;;;;;4880469;29;20394;-59
2022/12/19 14:02:31;;;;;;;59.72;35.00;;;;;;;;;;4887818;29;20089;-60
2022/12/19 14:05:24;;;;;;;53.03;30.90;;;;;;;;;;4888987;29;20451;-57
2022/12/19 14:08:15;;;;;;;49.50;30.05;;;;;;;;;;4880467;29;20052;-58
2022/12/19 14:10:43;;;;;;;53.72;30.00;;;;;;;;;;4880019;29;20057;-58
2022/12/19 14:16:26;;;;;;;63.75;35.70;;;;;;;;;;4879016;29;20109;-60
2022/12/19 14:19:19;;;;;;;68.90;40.53;;;;;;;;;;4879770;29;20132;-59
2022/12/19 14:21:46;;;;;;;69.95;41.03;;;;;;;;;;4879682;29;20108;-60
2022/12/19 14:24:32;;;;;;;74.03;42.42;;;;;;;;;;4879651;29;20069;-60
2022/12/19 14:27:00;;;;;;;70.03;38.88;;;;;;;;;;4862436;29;20053;-59
2022/12/19 14:29:49;;;;;;;54.85;32.90;;;;;;;;;;4879489;29;20068;-60
2022/12/19 14:32:36;;;;;;;54.90;31.60;;;;;;;;;;4879554;29;20583;-60
2022/12/19 14:35:25;;;;;;;51.97;30.98;;;;;;;;;;4879120;29;20105;-58
2022/12/19 14:38:15;;;;;;;49.55;30.75;;;;;;;;;;4879530;29;20131;-58
2022/12/19 14:41:01;;;;;;;58.10;33.05;;;;;;;;;;4879352;29;20117;-58
2022/12/19 14:43:37;;;;;;;78.85;36.63;;;;;;;;;;4879304;29;20130;-59
2022/12/19 14:46:26;;;;;;;87.40;40.78;;;;;;;;;;4878746;29;20056;-59
2022/12/19 14:49:23;;;;;;;58.95;31.95;;;;;;;;;;4878222;29;20045;-58
2022/12/19 14:52:28;;;;;;;62.38;32.85;;;;;;;;;;4879287;29;20127;-60
2022/12/19 14:55:25;;;;;;;55.53;33.28;;;;;;;;;;4879036;29;20097;-59
2022/12/19 14:58:16;;;;;;;52.65;31.55;;;;;;;;;;4862460;29;20502;-59
2022/12/19 15:01:04;;;;;;;54.15;31.83;;;;;;;;;;4879248;29;20060;-57
2022/12/19 15:03:40;;;;;;;59.65;33.22;;;;;;;;;;4879072;29;20072;-58